createdAt,value
2023-03-29T00:04:04.908Z,8.75
2023-03-29T00:09:06.889Z,7.65
2023-03-29T00:14:08.378Z,8.88
2023-03-29T00:19:10.000Z,5.93
2023-03-29T00:24:11.464Z,9.13
2023-03-29T00:29:12.875Z,10.65
2023-03-29T00:34:14.256Z,9.10
2023-03-29T00:39:15.735Z,9.15
2023-03-29T00:44:36.570Z,12.68
2023-03-29T00:49:38.040Z,9.68
2023-03-29T00:54:41.179Z,9.32
2023-03-29T00:59:43.333Z,7.53
2023-03-29T01:04:55.197Z,9.75
2023-03-29T01:10:03.993Z,11.80
2023-03-29T01:15:12.513Z,8.75
2023-03-29T01:20:17.562Z,11.20
2023-03-29T01:25:26.256Z,10.15
2023-03-29T01:30:32.161Z,9.07
2023-03-29T01:35:40.050Z,9.23
2023-03-29T01:40:41.930Z,8.52
2023-03-29T01:45:50.064Z,8.70
2023-03-29T01:50:54.154Z,11.00
2023-03-29T01:55:57.063Z,10.05
2023-03-29T02:01:00.004Z,9.23
2023-03-29T02:06:02.256Z,10.07
2023-03-29T02:11:04.658Z,11.80
2023-03-29T02:16:13.717Z,10.10
2023-03-29T02:21:26.132Z,8.27
2023-03-29T02:26:29.025Z,9.80
2023-03-29T02:31:49.105Z,11.57
2023-03-29T02:36:52.376Z,10.05
2023-03-29T02:41:54.386Z,10.60
2023-03-29T02:47:02.159Z,11.73
2023-03-29T02:52:08.884Z,10.60
2023-03-29T02:57:10.885Z,10.52
2023-03-29T03:02:13.789Z,11.48
2023-03-29T03:07:15.272Z,10.70
2023-03-29T03:12:16.942Z,11.52
2023-03-29T03:17:18.957Z,10.55
2023-03-29T03:22:20.349Z,10.68
2023-03-29T03:27:21.777Z,11.15
2023-03-29T03:32:23.911Z,10.57
2023-03-29T03:37:25.326Z,10.93
2023-03-29T03:42:29.700Z,12.38
2023-03-29T03:47:31.142Z,10.30
2023-03-29T03:52:32.556Z,11.13
2023-03-29T03:57:37.440Z,11.27
2023-03-29T04:02:39.017Z,13.32
2023-03-29T04:07:41.281Z,14.02
2023-03-29T04:12:42.708Z,12.93
2023-03-29T04:17:44.221Z,11.15
2023-03-29T04:22:45.779Z,11.82
2023-03-29T04:27:47.250Z,12.15
2023-03-29T04:32:48.893Z,13.38
2023-03-29T04:37:51.540Z,12.00
2023-03-29T04:42:53.557Z,13.57
2023-03-29T04:47:59.770Z,12.48
2023-03-29T04:53:01.659Z,13.55
2023-03-29T04:58:03.062Z,12.88
2023-03-29T05:03:04.684Z,13.63
2023-03-29T05:08:06.225Z,12.48
2023-03-29T05:13:07.686Z,12.13
2023-03-29T05:18:09.687Z,11.90
2023-03-29T05:23:12.566Z,12.40
2023-03-29T05:28:14.426Z,12.57
2023-03-29T05:33:16.467Z,11.90
2023-03-29T05:38:17.941Z,16.05
2023-03-29T05:43:19.375Z,12.02
2023-03-29T05:48:22.372Z,13.52
2023-03-29T05:53:24.864Z,13.05
2023-03-29T05:58:26.581Z,13.30
2023-03-29T06:03:28.384Z,14.02
2023-03-29T06:08:31.059Z,14.48
2023-03-29T06:13:34.065Z,14.68
2023-03-29T06:18:36.130Z,12.73
2023-03-29T06:23:37.703Z,12.30
2023-03-29T06:28:39.278Z,11.60
2023-03-29T06:33:43.193Z,14.57
2023-03-29T06:38:47.747Z,12.57
2023-03-29T06:43:49.211Z,13.57
2023-03-29T06:48:51.289Z,12.30
2023-03-29T06:53:52.678Z,14.38
2023-03-29T06:58:54.107Z,11.88
2023-03-29T07:03:56.894Z,14.18
2023-03-29T07:09:00.615Z,13.00
2023-03-29T07:14:03.229Z,14.80
2023-03-29T07:19:04.800Z,13.95
2023-03-29T07:24:06.997Z,15.45
2023-03-29T07:29:09.366Z,11.32
2023-03-29T07:34:13.835Z,15.35
2023-03-29T07:39:15.682Z,13.15
2023-03-29T07:44:19.269Z,14.60
2023-03-29T07:49:22.442Z,13.90
2023-03-29T07:54:23.934Z,13.63
2023-03-29T07:59:25.324Z,16.45
2023-03-29T08:04:26.943Z,15.38
2023-03-29T08:09:28.553Z,14.30
2023-03-29T08:14:30.294Z,19.25
2023-03-29T08:19:32.247Z,14.52
2023-03-29T08:24:33.728Z,15.02
2023-03-29T08:29:35.385Z,15.18
2023-03-29T08:34:38.610Z,15.52
2023-03-29T08:39:39.996Z,15.05
2023-03-29T08:44:50.822Z,16.55
2023-03-29T08:49:54.357Z,15.38
2023-03-29T08:54:56.940Z,15.80
2023-03-29T09:00:00.040Z,19.85
2023-03-29T09:05:22.597Z,17.38
2023-03-29T09:10:32.130Z,17.73
2023-03-29T09:15:43.023Z,21.02
2023-03-29T09:20:56.441Z,22.08
2023-03-29T09:26:02.173Z,25.10
2023-03-29T09:31:14.500Z,26.05
2023-03-29T09:36:24.715Z,25.10
2023-03-29T09:41:46.624Z,25.60
2023-03-29T09:46:58.454Z,23.48
2023-03-29T09:52:03.248Z,26.15
2023-03-29T09:57:04.761Z,26.80
2023-03-29T10:02:08.222Z,21.45
2023-03-29T10:07:18.193Z,24.40
2023-03-29T10:12:20.206Z,27.40
2023-03-29T10:17:23.196Z,19.33
2023-03-29T10:22:26.497Z,21.67
2023-03-29T10:27:28.953Z,19.25
2023-03-29T10:32:33.783Z,22.00
2023-03-29T10:37:35.261Z,21.77
2023-03-29T10:42:46.260Z,22.65
2023-03-29T10:47:48.596Z,23.35
2023-03-29T10:52:53.001Z,26.05
2023-03-29T10:58:20.746Z,25.33
2023-03-29T11:03:35.448Z,26.95
2023-03-29T11:08:37.051Z,30.08
2023-03-29T11:14:11.605Z,26.45
2023-03-29T11:19:13.034Z,23.05
2023-03-29T11:24:29.564Z,28.35
2023-03-29T11:29:35.676Z,24.98
2023-03-29T11:34:37.216Z,27.05
2023-03-29T11:39:57.306Z,23.95
2023-03-29T11:44:59.912Z,33.95
2023-03-29T11:50:07.725Z,27.23
2023-03-29T11:55:23.627Z,32.53
2023-03-29T12:00:27.802Z,26.40
2023-03-29T12:05:34.660Z,28.95
2023-03-29T12:10:37.778Z,25.60
2023-03-29T12:15:42.727Z,26.60
2023-03-29T12:20:46.529Z,26.52
2023-03-29T12:26:10.789Z,28.35
2023-03-29T12:31:23.040Z,30.02
2023-03-29T12:36:35.158Z,31.92
2023-03-29T12:41:37.464Z,37.28
2023-03-29T12:46:40.160Z,32.67
2023-03-29T12:51:42.621Z,30.08
2023-03-29T12:56:56.272Z,29.30
2023-03-29T13:02:22.338Z,29.73
2023-03-29T13:07:23.771Z,24.92
2023-03-29T13:12:32.933Z,28.08
2023-03-29T13:17:35.096Z,27.52
2023-03-29T13:22:45.862Z,23.83
2023-03-29T13:28:05.788Z,18.20
2023-03-29T13:38:08.818Z,20.45
2023-03-29T13:43:23.190Z,20.73
2023-03-29T13:48:28.761Z,20.52
2023-03-29T13:53:36.524Z,24.27
2023-03-29T13:58:37.898Z,21.58
2023-03-29T14:03:42.167Z,26.90
2023-03-29T14:08:44.680Z,25.20
2023-03-29T14:13:46.513Z,23.48
2023-03-29T14:18:51.262Z,21.08
2023-03-29T14:23:57.992Z,20.65
2023-03-29T14:29:01.223Z,23.83
2023-03-29T14:34:04.133Z,18.88
2023-03-29T14:39:08.231Z,21.75
2023-03-29T14:44:09.754Z,19.40
2023-03-29T14:49:14.499Z,24.83
2023-03-29T14:54:18.711Z,21.13
2023-03-29T14:59:36.938Z,24.80
2023-03-29T15:04:38.974Z,23.88
2023-03-29T15:09:40.746Z,25.48
2023-03-29T15:14:42.315Z,23.85
2023-03-29T15:19:43.701Z,23.77
2023-03-29T15:24:48.412Z,23.52
2023-03-29T15:29:49.969Z,22.25
2023-03-29T15:34:57.949Z,21.48
2023-03-29T15:39:59.737Z,23.83
2023-03-29T15:45:03.574Z,24.88
2023-03-29T15:50:05.179Z,23.35
2023-03-29T15:55:06.904Z,21.58
2023-03-29T16:00:13.120Z,23.13
2023-03-29T16:05:14.625Z,27.52
2023-03-29T16:10:16.136Z,22.75
2023-03-29T16:15:20.819Z,25.13
2023-03-29T16:20:22.245Z,22.90
2023-03-29T16:25:23.862Z,26.77
2023-03-29T16:30:25.315Z,22.50
2023-03-29T16:35:31.320Z,24.35
2023-03-29T16:40:33.364Z,20.25
2023-03-29T16:45:34.741Z,22.30
2023-03-29T16:50:36.683Z,25.58
2023-03-29T16:55:38.201Z,19.13
2023-03-29T17:00:40.965Z,25.08
2023-03-29T17:05:48.988Z,22.27
2023-03-29T17:10:54.042Z,24.50
2023-03-29T17:15:56.300Z,22.30
2023-03-29T17:20:58.871Z,20.98
2023-03-29T17:26:01.371Z,24.55
2023-03-29T17:31:04.207Z,23.75
2023-03-29T17:36:07.016Z,24.05
2023-03-29T17:41:08.980Z,23.77
2023-03-29T17:46:10.427Z,27.45
2023-03-29T17:51:11.877Z,31.27
2023-03-29T17:56:13.461Z,32.60
2023-03-29T18:01:15.937Z,28.45
2023-03-29T18:06:19.514Z,32.80
2023-03-29T18:11:22.973Z,27.92
2023-03-29T18:16:24.604Z,29.33
2023-03-29T18:21:27.364Z,30.50
2023-03-29T18:26:28.791Z,29.55
2023-03-29T18:31:30.602Z,26.75
2023-03-29T18:36:32.339Z,29.20
2023-03-29T18:41:34.366Z,29.67
2023-03-29T18:46:35.873Z,28.88
2023-03-29T18:51:37.680Z,24.45
2023-03-29T18:56:40.457Z,25.67
2023-03-29T19:01:41.918Z,21.48
2023-03-29T19:06:43.373Z,25.08
2023-03-29T19:11:47.889Z,21.10
2023-03-29T19:16:49.991Z,22.60
2023-03-29T19:21:54.569Z,21.70
2023-03-29T19:26:56.562Z,21.17
2023-03-29T19:31:58.054Z,17.38
2023-03-29T19:37:00.920Z,18.33
2023-03-29T19:42:02.464Z,17.85
2023-03-29T19:47:07.508Z,16.73
2023-03-29T19:52:10.576Z,18.83
2023-03-29T19:57:12.072Z,14.65
2023-03-29T20:02:14.076Z,19.58
2023-03-29T20:07:15.621Z,18.65
2023-03-29T20:12:16.996Z,15.80
2023-03-29T20:17:18.456Z,16.17
2023-03-29T20:22:19.889Z,16.77
2023-03-29T20:27:21.542Z,17.92
2023-03-29T20:32:23.077Z,17.02
2023-03-29T20:37:25.907Z,19.67
2023-03-29T20:42:28.725Z,16.77
2023-03-29T20:47:30.352Z,16.40
2023-03-29T20:52:31.956Z,15.60
2023-03-29T20:57:33.725Z,15.13
2023-03-29T21:02:35.235Z,16.17
2023-03-29T21:07:37.521Z,17.33
2023-03-29T21:12:40.168Z,14.40
2023-03-29T21:17:42.207Z,15.57
2023-03-29T21:22:43.636Z,17.15
2023-03-29T21:27:45.360Z,16.27
2023-03-29T21:32:46.984Z,14.88
2023-03-29T21:37:48.484Z,14.30
2023-03-29T21:42:49.854Z,14.98
2023-03-29T21:47:51.328Z,15.30
2023-03-29T21:52:52.811Z,14.90
2023-03-29T21:57:54.265Z,17.38
2023-03-29T22:02:57.143Z,14.88
2023-03-29T22:07:58.812Z,14.20
2023-03-29T22:13:00.571Z,13.85
2023-03-29T22:18:05.276Z,16.08
2023-03-29T22:23:08.153Z,18.83
2023-03-29T22:28:09.799Z,15.30
2023-03-29T22:33:11.187Z,17.67
2023-03-29T22:38:12.561Z,12.48
2023-03-29T22:43:14.061Z,12.80
2023-03-29T22:48:15.420Z,12.52
2023-03-29T22:53:16.912Z,12.82
2023-03-29T22:58:18.338Z,16.13
2023-03-29T23:03:19.811Z,13.63
2023-03-29T23:08:21.582Z,13.77
2023-03-29T23:13:29.424Z,12.45
2023-03-29T23:18:31.772Z,12.90
2023-03-29T23:23:33.558Z,13.88
2023-03-29T23:28:35.195Z,11.50
2023-03-29T23:33:38.499Z,16.60
2023-03-29T23:38:40.625Z,12.98
2023-03-29T23:43:43.262Z,13.30
2023-03-29T23:48:45.969Z,12.95
2023-03-29T23:53:48.541Z,14.55
2023-03-29T23:58:51.016Z,15.20
